Livingston, IL (62058)

6:22 AM CST on December 20, 2014 (GMT -0600)
Rezy Road | Change Station
CLOSE
Current Station
Personal Weather Station
Location: Staunton, IL
Elevation: 630 ft
Nearby Weather Stations

Elev 630 ft 38.99 °N, 89.75 °W | Updated 1 second ago

Overcast
Overcast
32.5 °F
Feels Like 32 °F
N
0.9
Wind Variable Wind from SE
Gusts 4.0 mph

Today
High -- | Low -- °F
--% Chance of Precip.
Yesterday
High -- | Low -- °F
Precip. -- in
7:13 AM 4:39 PM
Waning Crescent, 3% visible
Pressure 30.25 in
Visibility 7.0 miles
Clouds Mostly Cloudy 2500 ft
Overcast 7000 ft
Windchill 32 °F
Dew Point 29 °F
Humidity 87%
Rainfall 0.00 in
Snow Depth Not available.
UV 0 out of 12
Pollen 2.10 out of 12
Air Quality Not available.
Flu Activity Not available.
METAR K3LF 201215Z AUTO 12004KT 7SM BKN025 OVC070 00/M04 A3025 RMK AO2 T10051036

More Conditions Fewer Conditions

Pressure 30.25 in
Visibility 7.0 miles
Clouds Mostly Cloudy 2500 ft
Overcast 7000 ft
Windchill 32 °F
Dew Point 29 °F
Humidity 87%
Rainfall 0.00 in
Snow Depth Not available.
UV 0 out of 12
Pollen 2.10 out of 12
Air Quality Not available.
Flu Activity Not available.
METAR K3LF 201215Z AUTO 12004KT 7SM BKN025 OVC070 00/M04 A3025 RMK AO2 T10051036

More Conditions Fewer Conditions

10-Day Weather Forecast

Almanac

Astronomy

Dec. 20, 2014 Rise Set
Actual Time
Civil Twilight
Nautical Twilight
Astronomical Twilight
Moon
Length of Visible Light
Length of Day
Tomorrow will be .
, % of the Moon is Illuminated

Today's Extremes

State Highs State Lows

Community

WunderPhotos

Upload Photos

1,779,163 photos uploaded!

WunderBlogs® & News

Nearby

Air Quality

  Air Quality AQ Index Pollutant
Not available.

Snow Depth

Station Depth Elevation

Earthquake Activity

City Distance Mag. Time & Date
Minimum magnitude displayed is 2.5.

Coastal Water Temperatures

Place Temperature

Nearby Weather Stations